Time;durP1;ratioP1;P1;durP2;ratioP2;P2;SDS_P1;SDS_P2;PMS_P1;PMS_P2;Temp;Humidity;BMP_temperature;BMP_pressure;BME280_temperature;BME280_humidity;BME280_pressure;Samples;Min_cycle;Max_cycle;Signal;HPM_P1;HPM_P2
2024/03/17 00:01:36;;;;;;;2.85;1.02;;;0.40;97.40;;;;;;5033470;28;20116;-64
2024/03/17 00:04:02;;;;;;;4.78;1.00;;;0.40;97.60;;;;;;5036348;28;20115;-65
2024/03/17 00:06:27;;;;;;;3.58;1.20;;;0.40;97.70;;;;;;5033512;28;20026;-65
2024/03/17 00:08:54;;;;;;;1.67;0.82;;;0.40;97.80;;;;;;5033428;28;20068;-66
2024/03/17 00:11:20;;;;;;;3.40;1.17;;;0.40;97.90;;;;;;5027189;28;20021;-66
2024/03/17 00:13:45;;;;;;;1.00;0.75;;;0.40;98.00;;;;;;5039316;28;20034;-65
2024/03/17 00:16:12;;;;;;;3.55;0.75;;;0.50;98.10;;;;;;5036813;28;20136;-66
2024/03/17 00:18:38;;;;;;;1.05;0.60;;;0.70;98.50;;;;;;5032424;28;20025;-65
2024/03/17 00:21:04;;;;;;;5.30;0.80;;;0.80;98.50;;;;;;5034776;28;20037;-66
2024/03/17 00:23:29;;;;;;;3.85;0.80;;;0.80;98.50;;;;;;5037834;28;20494;-65
2024/03/17 00:25:55;;;;;;;5.25;0.93;;;0.90;98.80;;;;;;5041127;28;20055;-65
2024/03/17 00:28:21;;;;;;;1.48;0.65;;;0.90;98.80;;;;;;5037898;28;20087;-66
2024/03/17 00:30:46;;;;;;;4.10;1.20;;;1.00;98.80;;;;;;5030306;28;20155;-65
2024/03/17 00:33:12;;;;;;;7.50;0.65;;;1.00;98.90;;;;;;5036926;28;20096;-66
2024/03/17 00:35:37;;;;;;;3.65;0.80;;;1.00;98.90;;;;;;5039726;28;20029;-65
2024/03/17 00:38:09;;;;;;;2.72;1.00;;;0.90;98.80;;;;;;5036865;28;20469;-66
2024/03/17 00:40:38;;;;;;;2.25;0.70;;;0.90;98.90;;;;;;5033476;28;20072;-65
2024/03/17 00:43:04;;;;;;;2.22;0.70;;;0.90;98.90;;;;;;5037103;28;20138;-65
2024/03/17 00:45:29;;;;;;;1.02;0.85;;;0.80;98.90;;;;;;5032268;28;20025;-65
2024/03/17 00:47:55;;;;;;;9.43;0.90;;;0.70;98.80;;;;;;5029274;28;20116;-65
2024/03/17 00:50:20;;;;;;;3.72;0.80;;;0.60;98.90;;;;;;5041268;28;20064;-66
2024/03/17 00:52:46;;;;;;;5.28;0.77;;;0.40;98.80;;;;;;5033266;28;20057;-65
2024/03/17 00:55:11;;;;;;;3.85;0.70;;;0.40;98.90;;;;;;5029468;28;20036;-67
2024/03/17 00:57:37;;;;;;;4.95;1.02;;;0.60;99.20;;;;;;5029476;28;20037;-65
2024/03/17 01:00:04;;;;;;;1.40;0.77;;;0.60;99.30;;;;;;5031810;28;20028;-65
2024/03/17 01:02:30;;;;;;;1.75;0.82;;;0.60;99.20;;;;;;5037140;28;20026;-66
2024/03/17 01:04:55;;;;;;;4.80;0.85;;;0.60;99.10;;;;;;5038022;28;20032;-65
2024/03/17 01:07:21;;;;;;;1.45;0.70;;;0.40;99.00;;;;;;5034087;28;20473;-65
2024/03/17 01:09:48;;;;;;;7.82;1.40;;;0.40;99.20;;;;;;5043261;28;20029;-64
2024/03/17 01:12:13;;;;;;;2.05;0.90;;;0.30;99.10;;;;;;5031107;28;20473;-65
2024/03/17 01:14:39;;;;;;;3.13;1.05;;;0.30;99.10;;;;;;5044420;28;20044;-64
2024/03/17 01:17:04;;;;;;;1.70;0.77;;;0.20;99.10;;;;;;5044972;28;20033;-65
2024/03/17 01:19:30;;;;;;;2.58;0.80;;;0.10;99.10;;;;;;5035751;28;20116;-64
2024/03/17 01:21:56;;;;;;;4.28;0.93;;;0.10;99.20;;;;;;5038465;28;20060;-64
2024/03/17 01:24:22;;;;;;;3.10;1.02;;;0.10;99.30;;;;;;5034848;28;20088;-65
2024/03/17 01:26:47;;;;;;;7.20;1.38;;;0.10;99.30;;;;;;5034001;28;20037;-64
2024/03/17 01:29:13;;;;;;;2.30;0.88;;;0.10;99.30;;;;;;5028809;28;20079;-64
2024/03/17 01:31:39;;;;;;;2.33;0.68;;;0.10;99.20;;;;;;5033831;28;20045;-64
2024/03/17 01:34:04;;;;;;;3.05;0.77;;;0.10;99.30;;;;;;5035731;28;20109;-65
2024/03/17 01:36:30;;;;;;;2.05;1.00;;;0.10;99.30;;;;;;5036310;28;20178;-65
2024/03/17 01:38:55;;;;;;;3.70;0.95;;;0.10;99.30;;;;;;5032909;28;20117;-67
2024/03/17 01:41:21;;;;;;;4.70;0.88;;;0.10;99.30;;;;;;5036850;28;20103;-67
2024/03/17 01:43:46;;;;;;;1.00;0.70;;;0.10;99.50;;;;;;5039081;28;20106;-66
2024/03/17 01:46:17;;;;;;;1.23;0.85;;;0.10;99.30;;;;;;5031230;28;20370;-66
2024/03/17 01:48:42;;;;;;;1.95;1.10;;;0.00;99.40;;;;;;5037016;28;20025;-66
2024/03/17 01:51:10;;;;;;;3.75;0.80;;;0.10;99.60;;;;;;5034103;28;20048;-65
2024/03/17 01:53:36;;;;;;;5.00;1.27;;;0.00;99.50;;;;;;5034681;28;20116;-66
2024/03/17 01:56:03;;;;;;;1.55;0.73;;;0.00;99.60;;;;;;5036931;28;20477;-66
2024/03/17 01:58:30;;;;;;;1.85;0.73;;;0.00;99.50;;;;;;5037267;28;20162;-65
2024/03/17 02:00:57;;;;;;;1.60;0.98;;;0.00;99.50;;;;;;5034883;28;20032;-66
2024/03/17 02:03:22;;;;;;;1.10;0.70;;;-3276.70;99.40;;;;;;5027593;28;20025;-66
2024/03/17 02:05:48;;;;;;;3.95;0.98;;;-3276.60;99.50;;;;;;5028668;28;20052;-66
2024/03/17 02:08:14;;;;;;;2.00;0.82;;;-3276.70;99.70;;;;;;5033098;28;20100;-66
2024/03/17 02:10:39;;;;;;;2.05;1.02;;;-3276.70;99.80;;;;;;5036984;28;20037;-66
2024/03/17 02:13:05;;;;;;;2.42;1.00;;;-3276.60;99.60;;;;;;5036954;28;20025;-66
2024/03/17 02:15:32;;;;;;;2.60;0.70;;;-3276.60;99.60;;;;;;5034294;28;20033;-66
2024/03/17 02:17:58;;;;;;;2.10;0.98;;;-3276.70;99.90;;;;;;5031945;28;20169;-67
2024/03/17 02:23:08;;;;;;;2.47;1.00;;;-3276.50;99.60;;;;;;5033092;28;20054;-66
2024/03/17 02:25:33;;;;;;;1.27;0.68;;;-3276.40;99.60;;;;;;5033581;28;20033;-65
2024/03/17 02:28:00;;;;;;;2.85;0.70;;;-3276.40;99.60;;;;;;5036723;28;20137;-66
2024/03/17 02:30:25;;;;;;;3.25;1.00;;;-3276.30;99.70;;;;;;5030984;28;20386;-66
2024/03/17 02:32:54;;;;;;;4.95;1.15;;;-3276.30;99.70;;;;;;5035804;28;20033;-67
2024/03/17 02:35:21;;;;;;;4.22;1.10;;;-3276.30;99.60;;;;;;5028268;28;20404;-65
2024/03/17 02:37:47;;;;;;;4.10;0.75;;;-3276.30;99.70;;;;;;5030226;28;20474;-66
2024/03/17 02:40:13;;;;;;;6.75;1.00;;;-3276.30;99.80;;;;;;5038969;28;20041;-66
2024/03/17 02:42:41;;;;;;;3.17;0.93;;;-3276.30;99.80;;;;;;5036154;28;20041;-66
2024/03/17 02:45:08;;;;;;;4.85;1.00;;;-3276.30;99.80;;;;;;5038785;28;20025;-67
2024/03/17 02:47:34;;;;;;;2.33;1.05;;;-3276.30;99.80;;;;;;5037206;28;20331;-66
2024/03/17 02:50:00;;;;;;;1.42;0.90;;;-3276.30;99.70;;;;;;5035048;28;20353;-66
2024/03/17 02:52:25;;;;;;;2.15;0.90;;;-3276.20;99.70;;;;;;5030585;28;20033;-66
2024/03/17 02:54:53;;;;;;;3.58;1.15;;;-3276.20;99.70;;;;;;5039854;28;20144;-66
2024/03/17 02:57:18;;;;;;;3.15;0.68;;;-3276.10;99.70;;;;;;5043483;28;20017;-66
2024/03/17 02:59:44;;;;;;;2.25;1.10;;;-3276.10;99.70;;;;;;5033903;28;20041;-67
2024/03/17 03:02:10;;;;;;;10.27;1.10;;;-3276.10;99.80;;;;;;5036716;28;20037;-65
2024/03/17 03:04:36;;;;;;;3.42;1.00;;;-3276.00;99.90;;;;;;5032340;28;20021;-67
2024/03/17 03:07:01;;;;;;;1.52;0.90;;;-3276.00;99.80;;;;;;5035143;28;20040;-66
2024/03/17 03:09:31;;;;;;;2.05;0.88;;;-3276.00;99.70;;;;;;5032128;28;20041;-65
2024/03/17 03:11:58;;;;;;;4.50;0.80;;;-3276.00;99.80;;;;;;5039483;28;20055;-66
2024/03/17 03:14:23;;;;;;;5.25;1.08;;;-3276.00;99.90;;;;;;5038920;28;20029;-66
2024/03/17 03:16:49;;;;;;;1.98;0.73;;;-3276.00;99.80;;;;;;5033416;28;20048;-66
2024/03/17 03:19:15;;;;;;;1.17;0.73;;;-3276.00;99.90;;;;;;5034418;28;20048;-66
2024/03/17 03:21:41;;;;;;;1.38;0.65;;;-3276.00;99.80;;;;;;5029483;28;20105;-67
2024/03/17 03:24:06;;;;;;;2.03;0.82;;;-3276.00;99.80;;;;;;5024896;28;20117;-68
2024/03/17 03:26:32;;;;;;;3.50;1.13;;;-3276.00;99.80;;;;;;5038325;28;20036;-66
2024/03/17 03:28:57;;;;;;;1.58;1.15;;;-3276.00;99.80;;;;;;5028220;28;20056;-66
2024/03/17 03:31:23;;;;;;;9.38;1.05;;;-3276.00;99.80;;;;;;5032222;28;20401;-66
2024/03/17 03:33:48;;;;;;;4.47;0.95;;;-3276.00;99.80;;;;;;5036279;28;20227;-67
2024/03/17 03:36:16;;;;;;;7.13;1.33;;;-3276.00;99.90;;;;;;5032147;28;20122;-65
2024/03/17 03:38:41;;;;;;;6.03;1.00;;;-3276.00;99.90;;;;;;5031644;28;20053;-66
2024/03/17 03:41:13;;;;;;;2.83;1.00;;;-3276.00;99.90;;;;;;5033054;28;20053;-66
2024/03/17 03:43:38;;;;;;;4.43;1.42;;;-3276.00;99.90;;;;;;5045971;28;20190;-66
2024/03/17 03:46:05;;;;;;;2.50;1.05;;;-3276.00;99.90;;;;;;5048168;28;20142;-66
2024/03/17 03:48:31;;;;;;;5.60;1.45;;;-3276.00;99.90;;;;;;5037692;28;20116;-66
2024/03/17 03:50:56;;;;;;;3.65;1.10;;;-3276.00;99.90;;;;;;5041061;28;20120;-66
2024/03/17 03:53:22;;;;;;;3.05;1.33;;;-3276.00;99.90;;;;;;5040192;28;20104;-66
2024/03/17 03:55:48;;;;;;;4.82;1.70;;;-3276.30;99.90;;;;;;5033154;28;20033;-65
2024/03/17 03:58:14;;;;;;;4.88;1.88;;;-3276.20;99.90;;;;;;5037445;28;20040;-66
2024/03/17 04:00:40;;;;;;;5.90;1.33;;;-3276.30;99.90;;;;;;5037419;28;20033;-65
2024/03/17 04:03:05;;;;;;;7.45;1.63;;;-3276.30;99.90;;;;;;5033046;28;20037;-66
2024/03/17 04:05:31;;;;;;;5.50;1.77;;;-3276.30;99.90;;;;;;5037285;28;20411;-66
2024/03/17 04:07:57;;;;;;;4.55;1.92;;;-3276.20;99.90;;;;;;5036567;28;20047;-65
2024/03/17 04:10:24;;;;;;;11.70;1.83;;;-3276.50;99.90;;;;;;5025982;28;20029;-66
2024/03/17 04:12:50;;;;;;;4.05;2.22;;;-3276.30;99.90;;;;;;5036490;28;20412;-66
2024/03/17 04:15:16;;;;;;;4.70;2.03;;;-3276.40;99.90;;;;;;5032187;28;20113;-66
2024/03/17 04:17:42;;;;;;;3.67;1.63;;;-3276.60;99.90;;;;;;5040890;28;20390;-66
2024/03/17 04:20:09;;;;;;;4.15;2.08;;;-3276.60;99.90;;;;;;5030190;28;20063;-65
2024/03/17 04:22:35;;;;;;;3.10;1.67;;;-3276.70;99.90;;;;;;5032320;28;20064;-66
2024/03/17 04:25:01;;;;;;;6.82;2.30;;;-3276.70;99.90;;;;;;5036205;28;20076;-66
2024/03/17 04:27:28;;;;;;;6.45;1.85;;;-3276.60;99.90;;;;;;5033979;28;20021;-66
2024/03/17 04:29:55;;;;;;;7.78;2.35;;;-3276.60;99.90;;;;;;5032514;28;20061;-65
2024/03/17 04:32:21;;;;;;;9.80;2.22;;;-3276.70;99.90;;;;;;5034587;28;20096;-66
2024/03/17 04:34:49;;;;;;;6.75;2.08;;;-3276.70;99.90;;;;;;5032996;28;20025;-66
2024/03/17 04:37:15;;;;;;;5.30;1.92;;;-3276.50;99.90;;;;;;5030277;28;20047;-65
2024/03/17 04:39:42;;;;;;;9.75;2.97;;;-3276.50;99.90;;;;;;5030728;28;20037;-67
2024/03/17 04:42:09;;;;;;;3.25;1.95;;;-3276.40;99.90;;;;;;5032675;28;20132;-65
2024/03/17 04:44:34;;;;;;;7.35;2.60;;;-3276.30;99.90;;;;;;5037868;28;20063;-66
2024/03/17 04:47:00;;;;;;;6.35;2.63;;;-3276.30;99.90;;;;;;5036125;28;20364;-65
2024/03/17 04:49:25;;;;;;;6.97;2.53;;;-3276.20;99.90;;;;;;5032680;28;20064;-66
2024/03/17 04:51:51;;;;;;;7.10;2.17;;;-3276.20;99.90;;;;;;5034018;28;20036;-66
2024/03/17 04:54:16;;;;;;;4.10;2.15;;;-3276.10;99.90;;;;;;5028154;28;20365;-67
2024/03/17 04:56:42;;;;;;;6.53;2.05;;;-3276.10;99.90;;;;;;5034162;28;20029;-66
2024/03/17 04:59:07;;;;;;;4.93;1.85;;;-3276.10;99.90;;;;;;5033286;28;20448;-67
2024/03/17 05:01:36;;;;;;;5.22;2.30;;;-3276.00;99.90;;;;;;5039168;28;20025;-66
2024/03/17 05:04:03;;;;;;;7.93;2.45;;;-3276.00;99.90;;;;;;5042067;28;20025;-66
2024/03/17 05:06:28;;;;;;;3.63;2.22;;;-3276.00;99.90;;;;;;5034205;28;20108;-65
2024/03/17 05:08:54;;;;;;;6.70;2.00;;;-3276.10;99.90;;;;;;5034224;28;20144;-66
2024/03/17 05:11:19;;;;;;;7.45;2.30;;;-3276.10;99.90;;;;;;5032405;28;20100;-66
2024/03/17 05:13:45;;;;;;;3.63;1.98;;;-3276.10;99.90;;;;;;5034104;28;20034;-66
2024/03/17 05:16:11;;;;;;;4.90;2.00;;;-3276.20;99.90;;;;;;5039472;28;20521;-66
2024/03/17 05:18:38;;;;;;;4.93;2.38;;;-3276.10;99.90;;;;;;5033014;28;20026;-67
2024/03/17 05:21:05;;;;;;;4.22;2.40;;;-3276.20;99.90;;;;;;5045874;28;20038;-66
2024/03/17 05:23:32;;;;;;;5.70;2.65;;;-3276.20;99.90;;;;;;5032072;28;20029;-66
2024/03/17 05:25:59;;;;;;;7.32;2.47;;;-3276.30;99.90;;;;;;5033439;28;20037;-66
2024/03/17 05:28:26;;;;;;;4.40;2.47;;;-3276.30;99.90;;;;;;5031891;28;20029;-64
2024/03/17 05:30:52;;;;;;;8.38;2.85;;;-3276.30;99.90;;;;;;5032139;28;20264;-65
2024/03/17 05:33:18;;;;;;;9.05;3.70;;;-3276.30;99.90;;;;;;5031781;28;20025;-67
2024/03/17 05:36:02;;;;;;;9.00;3.13;;;-3276.40;99.90;;;;;;5040437;28;20029;-66
2024/03/17 05:38:30;;;;;;;8.35;2.92;;;-3276.40;99.90;;;;;;5036926;28;20044;-64
2024/03/17 05:40:56;;;;;;;9.07;3.35;;;-3276.50;99.90;;;;;;5038382;28;20127;-64
2024/03/17 05:43:26;;;;;;;8.10;3.25;;;-3276.60;99.90;;;;;;5039619;28;20393;-64
2024/03/17 05:45:52;;;;;;;10.85;3.42;;;-3276.60;99.90;;;;;;5037705;28;20025;-64
2024/03/17 05:48:18;;;;;;;6.07;3.13;;;-3276.70;99.90;;;;;;5030809;28;20083;-65
2024/03/17 05:50:43;;;;;;;6.60;3.08;;;0.00;99.90;;;;;;5029858;28;20154;-66
2024/03/17 05:53:09;;;;;;;6.78;2.88;;;0.00;99.90;;;;;;5041557;28;20397;-65
2024/03/17 05:55:36;;;;;;;6.82;3.17;;;0.10;99.90;;;;;;5033424;28;20563;-64
2024/03/17 05:58:02;;;;;;;8.45;2.75;;;0.10;99.90;;;;;;5036786;28;20113;-64
2024/03/17 06:00:27;;;;;;;8.68;3.55;;;0.10;99.90;;;;;;5033784;28;20179;-65
2024/03/17 06:02:52;;;;;;;9.82;3.78;;;0.20;99.90;;;;;;5040226;28;20056;-64
2024/03/17 06:05:18;;;;;;;9.73;4.22;;;0.20;99.90;;;;;;5033745;28;20041;-65
2024/03/17 06:07:43;;;;;;;7.13;3.33;;;0.40;99.90;;;;;;5037643;28;20059;-64
2024/03/17 06:10:09;;;;;;;5.97;2.60;;;0.40;99.90;;;;;;5023968;28;20120;-65
2024/03/17 06:12:34;;;;;;;10.55;2.60;;;0.40;99.90;;;;;;5039786;28;20489;-64
2024/03/17 06:15:02;;;;;;;8.43;2.72;;;0.40;99.90;;;;;;5030862;28;20449;-65
2024/03/17 06:17:27;;;;;;;9.25;3.45;;;0.40;99.90;;;;;;5030613;28;20060;-64
2024/03/17 06:19:52;;;;;;;5.80;3.20;;;0.40;99.90;;;;;;5035240;28;20034;-65
2024/03/17 06:22:18;;;;;;;5.13;2.53;;;0.40;99.90;;;;;;5032100;28;20112;-65
2024/03/17 06:24:44;;;;;;;3.90;2.15;;;0.40;99.90;;;;;;5030039;28;20071;-64
2024/03/17 06:27:09;;;;;;;4.93;3.03;;;0.40;99.90;;;;;;5026687;28;20121;-65
2024/03/17 06:29:35;;;;;;;5.50;2.65;;;0.40;99.90;;;;;;5038619;28;20063;-64
2024/03/17 06:32:00;;;;;;;4.78;2.83;;;0.40;99.90;;;;;;5028851;28;20033;-65
2024/03/17 06:34:26;;;;;;;5.35;2.70;;;0.40;99.90;;;;;;5029771;28;20415;-64
2024/03/17 06:36:52;;;;;;;5.25;2.80;;;0.40;99.90;;;;;;5030333;28;20029;-65
2024/03/17 06:39:19;;;;;;;5.13;2.67;;;0.40;99.90;;;;;;5031845;28;20155;-65
2024/03/17 06:41:45;;;;;;;4.35;2.30;;;0.40;99.90;;;;;;5037059;28;20049;-65
2024/03/17 06:44:10;;;;;;;5.35;2.40;;;0.40;99.90;;;;;;5038638;28;20071;-65
2024/03/17 06:46:36;;;;;;;5.45;2.88;;;0.40;99.90;;;;;;5043664;28;20037;-64
2024/03/17 06:49:01;;;;;;;4.78;2.67;;;0.40;99.90;;;;;;5035967;28;20026;-66
2024/03/17 06:51:27;;;;;;;3.38;2.15;;;0.40;99.90;;;;;;5028007;28;20041;-65
2024/03/17 06:53:52;;;;;;;4.60;2.72;;;0.40;99.90;;;;;;5027552;28;20044;-65
2024/03/17 06:56:18;;;;;;;4.03;2.25;;;0.60;99.90;;;;;;5028825;28;20025;-64
2024/03/17 06:58:43;;;;;;;5.47;3.13;;;0.70;99.90;;;;;;5028296;28;20017;-64
2024/03/17 07:01:09;;;;;;;4.97;2.83;;;0.80;99.90;;;;;;5038954;28;20045;-65
2024/03/17 07:03:35;;;;;;;5.38;3.00;;;1.10;99.90;;;;;;5031861;28;20106;-65
2024/03/17 07:06:02;;;;;;;4.13;2.58;;;1.10;99.90;;;;;;5028197;28;20418;-64
2024/03/17 07:08:29;;;;;;;4.45;2.50;;;1.20;99.80;;;;;;5036722;28;20078;-66
2024/03/17 07:11:00;;;;;;;4.78;2.55;;;1.30;99.90;;;;;;5033101;28;20021;-64
2024/03/17 07:13:25;;;;;;;4.93;2.83;;;1.40;99.90;;;;;;5028962;28;20025;-65
2024/03/17 07:15:51;;;;;;;5.78;3.00;;;1.60;99.90;;;;;;5029186;28;20089;-65
2024/03/17 07:18:16;;;;;;;4.20;2.55;;;1.70;99.90;;;;;;5036153;28;20031;-65
2024/03/17 07:20:42;;;;;;;6.57;3.10;;;1.90;99.90;;;;;;5028306;28;20180;-63
2024/03/17 07:23:07;;;;;;;5.20;2.92;;;2.30;99.90;;;;;;5027333;28;20038;-63
2024/03/17 07:25:33;;;;;;;8.05;3.25;;;2.70;99.90;;;;;;5023394;28;20147;-63
2024/03/17 07:27:58;;;;;;;5.68;2.83;;;2.60;99.40;;;;;;5030403;28;20464;-63
2024/03/17 07:30:24;;;;;;;5.55;3.00;;;2.90;99.90;;;;;;5026966;28;20037;-62
2024/03/17 07:32:49;;;;;;;4.47;2.67;;;3.10;99.90;;;;;;5029052;28;20215;-63
2024/03/17 07:35:15;;;;;;;4.30;2.40;;;3.20;99.80;;;;;;5030242;28;20053;-63
2024/03/17 07:37:40;;;;;;;5.55;2.85;;;2.90;98.70;;;;;;5033173;28;20056;-63
2024/03/17 07:40:06;;;;;;;6.30;3.42;;;3.00;99.00;;;;;;5027017;28;20163;-64
2024/03/17 07:42:33;;;;;;;4.55;2.72;;;3.30;99.30;;;;;;5029567;28;20236;-62
2024/03/17 07:44:58;;;;;;;5.35;2.67;;;3.30;98.90;;;;;;5030769;28;20052;-62
2024/03/17 07:47:24;;;;;;;4.32;2.83;;;3.30;98.80;;;;;;5032563;28;20045;-63
2024/03/17 07:49:49;;;;;;;4.38;2.72;;;3.30;98.60;;;;;;5027335;28;20045;-62
2024/03/17 07:52:15;;;;;;;3.60;2.17;;;3.40;98.40;;;;;;5026403;28;20109;-65
2024/03/17 07:54:41;;;;;;;5.25;2.75;;;3.50;98.70;;;;;;5024579;28;20115;-67
2024/03/17 07:57:08;;;;;;;3.97;2.58;;;3.50;98.20;;;;;;5027420;28;20465;-62
2024/03/17 07:59:34;;;;;;;3.65;2.10;;;3.60;97.80;;;;;;5030959;28;20377;-63
2024/03/17 08:01:59;;;;;;;4.60;2.58;;;3.50;97.70;;;;;;5027352;28;20133;-62
2024/03/17 08:04:25;;;;;;;4.75;2.25;;;3.60;97.70;;;;;;5029931;28;20052;-62
2024/03/17 08:06:50;;;;;;;3.72;2.20;;;3.80;98.10;;;;;;5033465;28;20030;-65
2024/03/17 08:09:16;;;;;;;7.20;2.55;;;4.10;98.00;;;;;;5029748;28;20426;-64
2024/03/17 08:11:46;;;;;;;4.10;2.67;;;4.30;98.10;;;;;;5027674;28;20029;-64
2024/03/17 08:14:12;;;;;;;5.43;2.28;;;4.60;97.80;;;;;;5035708;28;20433;-63
2024/03/17 08:16:38;;;;;;;4.78;2.30;;;4.40;95.60;;;;;;5026380;28;20386;-63
2024/03/17 08:19:03;;;;;;;4.35;2.00;;;4.80;97.00;;;;;;5029021;28;20144;-64
2024/03/17 08:21:29;;;;;;;3.05;1.83;;;4.90;95.70;;;;;;5036983;28;20045;-64
2024/03/17 08:23:55;;;;;;;2.22;1.13;;;5.10;95.00;;;;;;5033839;28;20101;-64
2024/03/17 08:26:21;;;;;;;3.75;1.75;;;5.40;94.30;;;;;;5029188;28;20073;-65
2024/03/17 08:28:46;;;;;;;2.65;1.38;;;5.60;93.60;;;;;;5043723;28;20026;-63
2024/03/17 08:31:12;;;;;;;7.05;1.80;;;5.60;92.90;;;;;;5036115;28;20454;-64
2024/03/17 08:33:38;;;;;;;2.83;1.20;;;6.00;93.00;;;;;;5035762;28;20080;-64
2024/03/17 08:36:06;;;;;;;2.13;1.00;;;6.30;91.00;;;;;;5037703;28;20029;-65
2024/03/17 08:38:33;;;;;;;1.80;1.13;;;6.40;88.90;;;;;;5045431;28;20025;-64
2024/03/17 08:41:07;;;;;;;1.38;0.82;;;6.60;89.00;;;;;;5041626;28;20088;-64
2024/03/17 08:43:33;;;;;;;1.95;0.68;;;7.00;88.30;;;;;;5047101;28;20360;-63
2024/03/17 08:46:03;;;;;;;2.85;0.88;;;6.80;86.20;;;;;;5037116;28;20035;-64
2024/03/17 08:48:30;;;;;;;1.40;0.60;;;6.90;83.50;;;;;;5036249;28;20029;-63
2024/03/17 08:50:56;;;;;;;1.88;1.10;;;7.20;85.70;;;;;;5035530;28;20139;-65
2024/03/17 08:53:23;;;;;;;1.55;0.70;;;6.90;82.00;;;;;;5031988;28;20041;-64
2024/03/17 08:55:49;;;;;;;0.43;0.43;;;7.20;81.80;;;;;;5029225;28;20251;-63
2024/03/17 08:58:14;;;;;;;0.93;0.75;;;7.70;81.90;;;;;;5039055;28;20025;-63
2024/03/17 09:00:41;;;;;;;0.60;0.40;;;8.20;84.40;;;;;;5034407;28;20041;-66
2024/03/17 09:03:13;;;;;;;1.00;0.57;;;8.20;77.50;;;;;;5034755;28;20138;-64
2024/03/17 09:05:39;;;;;;;2.00;0.55;;;8.30;76.70;;;;;;5034882;28;20037;-64
2024/03/17 09:08:14;;;;;;;3.38;0.50;;;8.20;76.60;;;;;;5044404;28;20162;-64
2024/03/17 09:10:40;;;;;;;1.73;0.55;;;8.00;77.50;;;;;;5027760;28;20130;-64
2024/03/17 09:13:06;;;;;;;2.15;0.45;;;8.20;76.70;;;;;;5044437;28;20040;-63
2024/03/17 09:15:32;;;;;;;2.42;0.38;;;8.40;73.30;;;;;;5033133;28;20163;-63
2024/03/17 09:17:58;;;;;;;0.65;0.45;;;8.30;75.30;;;;;;5044371;28;20108;-63
2024/03/17 09:20:24;;;;;;;2.80;0.57;;;8.30;75.50;;;;;;5033086;28;20168;-64
2024/03/17 09:22:49;;;;;;;2.97;0.45;;;8.60;76.20;;;;;;5035348;28;20112;-63
2024/03/17 09:25:15;;;;;;;2.33;0.60;;;8.90;74.10;;;;;;5028652;28;20041;-63
2024/03/17 09:27:41;;;;;;;0.50;0.30;;;8.80;72.30;;;;;;5039698;28;20142;-63
2024/03/17 09:30:09;;;;;;;1.23;0.60;;;8.70;71.20;;;;;;5040338;28;20097;-72
2024/03/17 09:32:37;;;;;;;4.53;0.60;;;9.30;71.20;;;;;;5030709;28;20029;-63
2024/03/17 09:35:06;;;;;;;0.95;0.45;;;8.90;68.70;;;;;;5035534;28;20124;-63
2024/03/17 09:37:32;;;;;;;0.55;0.30;;;8.80;70.50;;;;;;5040752;28;20433;-64
2024/03/17 09:39:59;;;;;;;2.00;0.40;;;8.70;72.00;;;;;;5029036;28;20037;-63
2024/03/17 09:42:27;;;;;;;0.80;0.45;;;8.80;69.00;;;;;;5035545;28;20094;-63
2024/03/17 09:44:56;;;;;;;0.98;0.52;;;8.90;71.90;;;;;;5039311;28;20040;-63
2024/03/17 09:47:22;;;;;;;0.98;0.50;;;9.10;70.90;;;;;;5033556;28;20052;-66
2024/03/17 09:49:48;;;;;;;2.40;0.55;;;8.80;67.70;;;;;;5031750;28;20025;-64
2024/03/17 09:52:24;;;;;;;1.30;0.38;;;8.70;70.40;;;;;;5040497;28;20048;-63
2024/03/17 09:55:09;;;;;;;0.52;0.43;;;8.80;68.30;;;;;;5034430;28;20025;-62
2024/03/17 09:57:36;;;;;;;4.22;0.68;;;9.00;67.80;;;;;;5041005;28;20021;-65
2024/03/17 10:00:12;;;;;;;4.15;0.40;;;9.10;69.90;;;;;;5038933;28;20139;-67
2024/03/17 10:02:43;;;;;;;1.55;0.98;;;9.30;69.80;;;;;;5034724;28;20084;-68
2024/03/17 10:05:19;;;;;;;3.90;0.30;;;8.90;69.20;;;;;;5036814;28;20199;-66
2024/03/17 10:07:45;;;;;;;1.30;0.60;;;9.40;68.60;;;;;;5037872;28;20191;-65
2024/03/17 10:10:16;;;;;;;1.48;0.40;;;9.10;68.00;;;;;;5030601;28;20164;-65
2024/03/17 10:12:42;;;;;;;1.42;0.40;;;9.40;69.00;;;;;;5033698;28;20511;-66
2024/03/17 10:15:11;;;;;;;2.03;0.30;;;9.10;65.60;;;;;;5032164;28;20029;-65
2024/03/17 10:17:37;;;;;;;2.10;0.55;;;9.60;66.60;;;;;;5028703;28;20427;-65
2024/03/17 10:20:20;;;;;;;3.65;0.57;;;9.20;66.40;;;;;;5026809;28;20105;-64
2024/03/17 10:23:06;;;;;;;1.00;0.57;;;9.70;68.00;;;;;;5044268;28;20445;-66
2024/03/17 10:25:33;;;;;;;1.80;0.40;;;9.00;68.40;;;;;;5027565;28;20375;-65
2024/03/17 10:28:01;;;;;;;1.50;0.35;;;8.30;70.00;;;;;;5040269;28;20037;-65
2024/03/17 10:30:28;;;;;;;1.55;0.60;;;8.50;69.70;;;;;;5039804;28;20345;-64
2024/03/17 10:33:00;;;;;;;1.05;0.40;;;8.60;69.10;;;;;;5029371;28;20026;-65
2024/03/17 10:35:33;;;;;;;3.08;0.68;;;8.50;69.60;;;;;;5036383;28;20035;-65
2024/03/17 10:38:06;;;;;;;2.22;0.47;;;8.60;69.40;;;;;;5038389;28;20414;-65
2024/03/17 10:40:33;;;;;;;0.60;0.30;;;8.10;70.20;;;;;;5039581;28;20044;-64
2024/03/17 10:43:02;;;;;;;1.17;0.68;;;7.80;71.60;;;;;;5031847;28;20536;-64
2024/03/17 10:45:31;;;;;;;1.42;0.40;;;7.60;71.70;;;;;;5028852;28;20438;-64
2024/03/17 10:48:00;;;;;;;0.40;0.40;;;7.80;71.80;;;;;;5028851;28;20108;-64
2024/03/17 10:50:30;;;;;;;0.43;0.17;;;7.70;71.10;;;;;;5032774;28;20063;-64
2024/03/17 10:53:02;;;;;;;1.15;0.70;;;7.70;71.00;;;;;;5029641;28;20454;-64
2024/03/17 10:55:31;;;;;;;0.50;0.32;;;7.80;70.50;;;;;;5032578;28;20060;-64
2024/03/17 10:58:00;;;;;;;1.65;0.40;;;7.70;70.90;;;;;;5035128;28;20028;-64
2024/03/17 11:00:29;;;;;;;2.95;0.80;;;7.70;71.30;;;;;;5034786;28;20114;-63
2024/03/17 11:02:55;;;;;;;0.50;0.40;;;7.80;70.40;;;;;;5029580;28;20103;-64
2024/03/17 11:05:29;;;;;;;1.10;0.50;;;7.70;70.00;;;;;;5032656;28;20061;-64
2024/03/17 11:07:59;;;;;;;3.50;0.47;;;8.10;71.80;;;;;;5029956;28;20049;-65
2024/03/17 11:10:31;;;;;;;1.95;0.32;;;7.90;69.90;;;;;;5025898;28;20215;-64
2024/03/17 11:12:58;;;;;;;0.93;0.60;;;8.50;69.60;;;;;;5028114;28;20041;-64
2024/03/17 11:15:29;;;;;;;2.28;0.40;;;8.10;69.30;;;;;;5045735;28;20048;-64
2024/03/17 11:18:18;;;;;;;2.30;0.52;;;8.10;70.00;;;;;;5034606;28;20354;-64
2024/03/17 11:21:15;;;;;;;0.57;0.20;;;8.00;69.60;;;;;;5033399;28;20395;-64
2024/03/17 11:23:41;;;;;;;1.45;0.50;;;7.90;68.60;;;;;;5032564;28;20152;-65
2024/03/17 11:26:08;;;;;;;0.82;0.40;;;7.90;68.80;;;;;;5029750;28;20111;-66
2024/03/17 11:28:46;;;;;;;0.93;0.50;;;8.00;68.20;;;;;;5027329;28;20423;-66
2024/03/17 11:31:34;;;;;;;0.68;0.35;;;8.00;68.20;;;;;;5036651;28;20051;-65
2024/03/17 11:34:02;;;;;;;3.72;0.40;;;8.10;68.60;;;;;;5031393;28;20441;-65
2024/03/17 11:36:28;;;;;;;2.35;0.50;;;8.50;67.90;;;;;;5030916;28;20033;-65
2024/03/17 11:39:46;;;;;;;0.95;0.50;;;9.40;66.70;;;;;;5034886;28;20049;-65
2024/03/17 11:41:54;;;;;;;0.75;0.25;;;9.80;63.80;;;;;;5030497;28;20533;-65
2024/03/17 11:44:23;;;;;;;2.85;0.80;;;10.80;63.60;;;;;;5034326;28;20060;-67
2024/03/17 11:47:05;;;;;;;2.55;0.45;;;10.50;61.00;;;;;;5035232;28;20116;-65
2024/03/17 11:49:39;;;;;;;1.42;0.30;;;11.10;61.30;;;;;;5026549;28;20459;-65
2024/03/17 11:52:08;;;;;;;0.20;0.20;;;11.40;59.10;;;;;;5029810;28;20064;-65
2024/03/17 11:54:36;;;;;;;1.02;0.20;;;11.40;57.80;;;;;;5025299;28;20505;-65
2024/03/17 11:57:26;;;;;;;0.80;0.20;;;11.80;55.20;;;;;;5035651;28;20382;-65
2024/03/17 11:59:53;;;;;;;0.98;0.30;;;11.90;58.30;;;;;;5027583;28;20055;-66
2024/03/17 12:02:27;;;;;;;1.98;0.30;;;12.10;55.80;;;;;;5039253;28;20033;-66
2024/03/17 12:04:56;;;;;;;3.70;0.80;;;12.10;54.50;;;;;;5032765;28;20066;-68
2024/03/17 12:07:23;;;;;;;2.72;1.45;;;11.60;53.90;;;;;;5041691;28;20327;-66
2024/03/17 12:09:53;;;;;;;7.40;3.90;;;11.40;55.40;;;;;;5032626;28;20035;-66
2024/03/17 12:12:21;;;;;;;4.53;1.75;;;11.10;54.40;;;;;;5039933;28;20037;-67
2024/03/17 12:14:47;;;;;;;1.75;0.77;;;11.70;56.00;;;;;;5038749;28;20354;-66
2024/03/17 12:17:19;;;;;;;1.65;0.65;;;11.50;55.90;;;;;;5034811;28;20378;-66
2024/03/17 12:19:45;;;;;;;1.98;0.40;;;12.00;53.40;;;;;;5032179;28;20060;-66
2024/03/17 12:22:21;;;;;;;2.17;0.50;;;12.60;53.70;;;;;;5042962;28;20063;-67
2024/03/17 12:24:48;;;;;;;6.68;2.75;;;12.10;54.90;;;;;;5030194;28;20051;-66
2024/03/17 12:27:25;;;;;;;1.63;0.57;;;12.00;53.20;;;;;;5035671;28;20469;-67
2024/03/17 12:29:52;;;;;;;2.95;0.65;;;12.50;52.70;;;;;;5030285;28;20034;-67
2024/03/17 12:32:23;;;;;;;1.60;0.40;;;12.70;49.60;;;;;;5031065;28;20107;-66
2024/03/17 12:34:52;;;;;;;2.60;0.80;;;13.30;50.60;;;;;;5034295;28;20036;-67
2024/03/17 12:37:22;;;;;;;2.97;0.98;;;12.70;51.50;;;;;;5043216;28;20544;-67
2024/03/17 12:39:48;;;;;;;2.42;0.60;;;12.80;50.60;;;;;;5025639;28;20362;-67
2024/03/17 12:42:17;;;;;;;1.67;0.30;;;13.30;50.10;;;;;;5030113;28;20456;-67
2024/03/17 12:44:59;;;;;;;1.10;0.30;;;13.80;49.20;;;;;;5041498;28;20207;-68
2024/03/17 12:47:26;;;;;;;3.00;0.45;;;14.00;48.00;;;;;;5043722;28;20032;-67